DEMYA EDLW-

Flight info

Callsign DEMYA
Flight time N/A
Altitude
Route DCT S
Aircraft SR22

Departure

Time 2026-04-30 20:46
Airport Dortmund Airport (EDLW)

Arrival

Time N/A
Airport -
Time Latitude Longitude Altitude Speed Heading
2026-04-30 20:37 51.51217 7.60473 444 ft 0 kts 107°
2026-04-30 20:39 51.51223 7.60376 444 ft 16 kts 238°
2026-04-30 20:39 51.51178 7.60262 444 ft 4 kts 231°
2026-04-30 20:39 51.51167 7.60164 435 ft 8 kts 329°
2026-04-30 20:40 51.51283 7.60409 441 ft 19 kts 60°
2026-04-30 20:40 51.51353 7.60609 436 ft 23 kts 60°
2026-04-30 20:40 51.51430 7.60832 429 ft 24 kts 62°
2026-04-30 20:41 51.51574 7.61022 423 ft 14 kts 290°
2026-04-30 20:41 51.51555 7.60871 415 ft 13 kts 250°
2026-04-30 20:41 51.51532 7.60740 412 ft 7 kts 254°
2026-04-30 20:41 51.51526 7.60695 411 ft 0 kts 271°
2026-04-30 20:44 51.51590 7.60606 409 ft 12 kts 345°
2026-04-30 20:44 51.51624 7.60630 410 ft 0 kts 61°
2026-04-30 20:45 51.51631 7.60648 410 ft 18 kts 60°
2026-04-30 20:45 51.51821 7.61190 430 ft 83 kts 60°
2026-04-30 20:46 51.52761 7.63790 1317 ft 96 kts 72°
2026-04-30 20:46 51.52657 7.64798 1556 ft 94 kts 124°
2026-04-30 20:47 51.51737 7.66113 1927 ft 87 kts 133°
2026-04-30 20:47 51.51284 7.66741 2080 ft 89 kts 138°
2026-04-30 20:48 51.50299 7.68027 2292 ft 92 kts 138°
2026-04-30 20:48 51.49963 7.68472 2296 ft 97 kts 138°
2026-04-30 20:48 51.49431 7.69178 2302 ft 103 kts 138°
2026-04-30 20:48 51.48870 7.69924 2303 ft 106 kts 138°
2026-04-30 20:49 51.48279 7.70675 2298 ft 112 kts 142°
2026-04-30 20:49 51.47586 7.71307 2303 ft 116 kts 148°
2026-04-30 20:49 51.46865 7.71920 2304 ft 119 kts 148°
2026-04-30 20:50 51.45406 7.73187 2334 ft 117 kts 148°
2026-04-30 20:50 51.44690 7.73813 2344 ft 118 kts 148°
2026-04-30 20:50 51.43905 7.74128 2340 ft 126 kts 180°
2026-04-30 20:50 51.43042 7.73846 2348 ft 127 kts 184°
2026-04-30 20:51 51.42174 7.73598 2314 ft 127 kts 183°
2026-04-30 20:51 51.40500 7.73108 2533 ft 109 kts 182°
2026-04-30 20:51 51.39779 7.72821 2691 ft 106 kts 182°
2026-04-30 20:52 51.39078 7.72516 2860 ft 103 kts 182°
2026-04-30 20:52 51.38377 7.72199 2948 ft 108 kts 183°
2026-04-30 20:52 51.36846 7.71527 2966 ft 119 kts 183°
2026-04-30 20:53 51.36037 7.71179 2964 ft 125 kts 183°
2026-04-30 20:53 51.35191 7.70833 2969 ft 123 kts 183°
2026-04-30 20:53 51.34347 7.70464 2948 ft 129 kts 189°
2026-04-30 20:54 51.33052 7.68250 2924 ft 136 kts 217°
2026-04-30 20:54 51.32467 7.67081 2991 ft 134 kts 218°
2026-04-30 20:54 51.31901 7.65899 2914 ft 132 kts 216°
2026-04-30 20:55 51.30706 7.63886 2869 ft 110 kts 176°
2026-04-30 20:55 51.29983 7.63953 2957 ft 99 kts 150°
2026-04-30 20:55 51.29446 7.64585 3074 ft 97 kts 130°
2026-04-30 20:56 51.29093 7.66548 2998 ft 117 kts 75°
2026-04-30 20:56 51.29550 7.67578 3047 ft 112 kts 69°
2026-04-30 20:56 51.30358 7.69546 3029 ft 96 kts 69°
2026-04-30 20:57 51.30705 7.70421 2915 ft 82 kts 90°
2026-04-30 20:57 51.30541 7.71211 2747 ft 80 kts 144°
2026-04-30 20:57 51.29965 7.71048 2528 ft 103 kts 208°
2026-04-30 20:58 51.29820 7.68851 2155 ft 100 kts 324°
2026-04-30 20:58 51.30407 7.68697 2130 ft 82 kts 23°
2026-04-30 20:58 51.30879 7.69145 1855 ft 76 kts 57°